SAAC/COC METAR and TAF weather

Enter ICAO airport designator
Station Type Date Time Source
SAAC METAR 2019/02/11 11:18 UTC NOAA

SAAC 111118Z 36003KT 9999 -TS SCT025 FEW045CB 26/24 Q1003


Station Type Date Time Source
SAAC Decoded METAR 2019/02/11 11:18 UTC NOAA

Concordia Aerodrome, Argentina (SAAC) 31-18S 058-01W 38M
Feb 11, 2019 - 06:18 AM EST / 2019.02.11 1118 UTC
Wind: from the N (360 degrees) at 3 MPH (3 KT):0
Visibility: greater than 7 mile(s):0
Sky conditions: partly cloudy
Weather: light with thunder; Cumulonimbus clouds observed
Temperature: 78 F (26 C)
Dew Point: 75 F (24 C)
Relative Humidity: 88%
Pressure (altimeter): 29.62 in. Hg (1003 hPa)
ob: SAAC 111118Z 36003KT 9999 -TS SCT025 FEW045CB 26/24 Q1003
cycle: 11

Station Type Date Time Source
SAAC TAF UTC NOAA

Error!


Example: see airport list